createdAt,value
2023-02-04T00:05:28.901Z,3.05
2023-02-04T00:08:30.798Z,3.90
2023-02-04T00:11:32.773Z,3.53
2023-02-04T00:14:34.656Z,3.38
2023-02-04T00:17:36.618Z,2.95
2023-02-04T00:20:38.473Z,3.67
2023-02-04T00:23:40.811Z,3.88
2023-02-04T00:26:42.727Z,3.40
2023-02-04T00:29:44.754Z,3.60
2023-02-04T00:32:47.819Z,3.80
2023-02-04T00:35:49.756Z,3.90
2023-02-04T00:38:51.658Z,4.10
2023-02-04T00:41:53.646Z,4.82
2023-02-04T00:44:56.158Z,4.60
2023-02-04T00:51:00.596Z,4.57
2023-02-04T00:54:02.495Z,4.30
2023-02-04T00:57:04.411Z,4.00
2023-02-04T01:00:06.918Z,5.05
2023-02-04T01:03:09.023Z,4.45
2023-02-04T01:06:11.779Z,4.53
2023-02-04T01:09:13.765Z,4.10
2023-02-04T01:12:15.800Z,4.15
2023-02-04T01:15:18.012Z,3.50
2023-02-04T01:18:19.945Z,3.60
2023-02-04T01:21:23.471Z,2.90
2023-02-04T01:24:26.093Z,3.83
2023-02-04T01:27:46.779Z,3.80
2023-02-04T01:30:48.921Z,3.28
2023-02-04T01:33:50.972Z,3.22
2023-02-04T01:36:55.323Z,4.50
2023-02-04T01:39:57.225Z,3.92
2023-02-04T01:42:59.449Z,4.35
2023-02-04T01:46:01.636Z,4.68
2023-02-04T01:49:05.735Z,4.32
2023-02-04T01:52:09.849Z,5.47
2023-02-04T01:55:18.248Z,6.13
2023-02-04T01:58:20.567Z,5.55
2023-02-04T02:01:46.991Z,5.60
2023-02-04T02:04:48.926Z,5.80
2023-02-04T02:07:53.695Z,6.25
2023-02-04T02:10:55.616Z,5.95
2023-02-04T02:13:57.605Z,5.60
2023-02-04T02:16:59.643Z,5.22
2023-02-04T02:20:02.014Z,5.57
2023-02-04T02:23:16.818Z,4.95
2023-02-04T02:29:22.931Z,5.13
2023-02-04T02:32:24.857Z,4.65
2023-02-04T02:35:28.357Z,4.57
2023-02-04T02:38:31.888Z,5.05
2023-02-04T02:41:36.581Z,5.07
2023-02-04T02:44:38.510Z,4.93
2023-02-04T02:47:40.441Z,5.28
2023-02-04T02:50:43.162Z,3.63
2023-02-04T02:53:47.834Z,2.53
2023-02-04T02:56:50.592Z,2.50
2023-02-04T02:59:53.047Z,3.17
2023-02-04T03:03:00.104Z,3.30
2023-02-04T03:06:12.919Z,2.63
2023-02-04T03:09:15.054Z,2.42
2023-02-04T03:12:17.093Z,2.67
2023-02-04T03:15:19.084Z,2.20
2023-02-04T03:18:22.371Z,2.47
2023-02-04T03:21:24.366Z,2.67
2023-02-04T03:24:26.391Z,2.28
2023-02-04T03:27:29.183Z,2.15
2023-02-04T03:30:32.042Z,2.25
2023-02-04T03:33:34.186Z,2.28
2023-02-04T03:36:36.129Z,2.38
2023-02-04T03:39:38.259Z,2.05
2023-02-04T03:42:40.551Z,2.28
2023-02-04T03:45:45.519Z,1.95
2023-02-04T03:48:48.006Z,2.95
2023-02-04T03:51:50.631Z,2.78
2023-02-04T03:57:54.978Z,2.65
2023-02-04T04:00:57.196Z,2.53
2023-02-04T04:03:59.274Z,2.10
2023-02-04T04:07:01.262Z,2.00
2023-02-04T04:10:03.916Z,1.85
2023-02-04T04:13:06.018Z,1.92
2023-02-04T04:16:08.472Z,2.38
2023-02-04T04:19:10.515Z,2.00
2023-02-04T04:22:12.623Z,2.42
2023-02-04T04:25:14.725Z,2.67
2023-02-04T04:28:17.185Z,2.33
2023-02-04T04:31:20.131Z,2.13
2023-02-04T04:34:24.062Z,2.13
2023-02-04T04:37:26.160Z,2.08
2023-02-04T04:40:28.152Z,2.17
2023-02-04T04:43:30.194Z,2.13
2023-02-04T04:46:32.242Z,2.00
2023-02-04T04:49:34.308Z,1.77
2023-02-04T04:52:36.433Z,1.95
2023-02-04T04:55:39.325Z,1.90
2023-02-04T05:01:43.579Z,1.92
2023-02-04T05:04:45.757Z,1.90
2023-02-04T05:07:47.964Z,2.03
2023-02-04T05:10:50.206Z,2.10
2023-02-04T05:13:52.526Z,2.08
2023-02-04T05:16:54.820Z,2.03
2023-02-04T05:20:00.633Z,2.30
2023-02-04T05:23:05.411Z,2.15
2023-02-04T05:26:07.930Z,1.75
2023-02-04T05:29:10.820Z,1.60
2023-02-04T05:32:13.188Z,1.52
2023-02-04T05:35:16.184Z,1.73
2023-02-04T05:38:18.329Z,2.70
2023-02-04T05:41:20.474Z,2.28
2023-02-04T05:44:22.722Z,2.00
2023-02-04T05:47:24.954Z,2.38
2023-02-04T05:50:27.172Z,2.00
2023-02-04T05:53:43.466Z,2.25
2023-02-04T05:56:47.159Z,2.22
2023-02-04T05:59:49.325Z,1.83
2023-02-04T06:02:51.497Z,1.98
2023-02-04T06:05:53.798Z,1.67
2023-02-04T06:08:55.903Z,1.73
2023-02-04T06:11:58.094Z,1.73
2023-02-04T06:15:02.843Z,2.13
2023-02-04T06:18:04.909Z,1.70
2023-02-04T06:21:06.991Z,1.50
2023-02-04T06:24:09.117Z,1.77
2023-02-04T06:27:11.309Z,2.13
2023-02-04T06:30:14.369Z,2.28
2023-02-04T06:33:16.396Z,2.47
2023-02-04T06:36:18.403Z,1.90
2023-02-04T06:39:20.458Z,1.73
2023-02-04T06:42:22.471Z,1.85
2023-02-04T06:45:24.504Z,2.58
2023-02-04T06:48:26.523Z,3.17
2023-02-04T06:51:28.552Z,3.13
2023-02-04T06:54:30.572Z,4.03
2023-02-04T06:57:32.646Z,4.07
2023-02-04T07:00:35.055Z,2.50
2023-02-04T07:03:38.040Z,2.75
2023-02-04T07:06:40.381Z,3.95
2023-02-04T07:09:42.387Z,2.42
2023-02-04T07:12:44.479Z,2.15
2023-02-04T07:15:46.562Z,2.97
2023-02-04T07:18:48.754Z,2.30
2023-02-04T07:21:50.816Z,2.58
2023-02-04T07:24:53.236Z,3.00
2023-02-04T07:27:55.389Z,2.78
2023-02-04T07:30:58.069Z,2.33
2023-02-04T07:34:00.180Z,2.38
2023-02-04T07:37:02.332Z,3.05
2023-02-04T07:40:05.198Z,3.08
2023-02-04T07:46:10.467Z,2.80
2023-02-04T07:49:12.614Z,2.88
2023-02-04T07:52:14.661Z,2.63
2023-02-04T07:55:16.852Z,2.58
2023-02-04T07:58:18.940Z,2.72
2023-02-04T08:01:20.966Z,3.17
2023-02-04T08:04:25.704Z,2.60
2023-02-04T08:07:27.780Z,2.65
2023-02-04T08:10:30.113Z,2.33
2023-02-04T08:13:32.565Z,2.67
2023-02-04T08:16:34.760Z,3.45
2023-02-04T08:19:36.792Z,4.43
2023-02-04T08:22:38.936Z,3.30
2023-02-04T08:25:41.116Z,2.15
2023-02-04T08:28:43.240Z,1.95
2023-02-04T08:31:45.325Z,2.38
2023-02-04T08:34:47.417Z,1.98
2023-02-04T08:37:49.456Z,2.45
2023-02-04T08:40:51.464Z,2.40
2023-02-04T08:43:53.480Z,2.00
2023-02-04T08:46:55.822Z,2.03
2023-02-04T08:49:58.041Z,1.83
2023-02-04T08:53:00.072Z,2.72
2023-02-04T08:56:02.125Z,2.22
2023-02-04T08:59:04.360Z,2.08
2023-02-04T09:02:07.225Z,1.67
2023-02-04T09:05:09.251Z,2.03
2023-02-04T09:08:11.352Z,2.30
2023-02-04T09:11:13.407Z,1.98
2023-02-04T09:14:15.709Z,2.25
2023-02-04T09:17:17.884Z,2.10
2023-02-04T09:20:20.355Z,2.20
2023-02-04T09:23:22.482Z,2.15
2023-02-04T09:26:24.613Z,2.25
2023-02-04T09:29:26.919Z,2.70
2023-02-04T09:32:40.100Z,2.33
2023-02-04T09:35:42.140Z,2.00
2023-02-04T09:38:44.089Z,2.63
2023-02-04T09:41:46.082Z,2.35
2023-02-04T09:44:47.984Z,2.42
2023-02-04T09:47:51.519Z,2.67
2023-02-04T09:51:05.370Z,2.28
2023-02-04T09:54:15.951Z,2.42
2023-02-04T09:57:19.843Z,2.30
2023-02-04T10:00:25.321Z,2.55
2023-02-04T10:03:30.142Z,2.20
2023-02-04T10:06:32.329Z,2.55
2023-02-04T10:09:34.310Z,2.85
2023-02-04T10:12:36.233Z,2.55
2023-02-04T10:15:38.675Z,2.70
2023-02-04T10:18:41.184Z,3.50
2023-02-04T10:21:45.098Z,2.80
2023-02-04T10:24:47.246Z,3.15
2023-02-04T10:27:57.836Z,3.95
2023-02-04T10:31:00.209Z,3.22
2023-02-04T10:34:14.193Z,3.75
2023-02-04T10:37:21.838Z,3.78
2023-02-04T10:40:27.974Z,3.50
2023-02-04T10:43:30.106Z,3.40
2023-02-04T10:46:32.517Z,3.67
2023-02-04T10:49:34.444Z,3.30
2023-02-04T10:52:41.980Z,2.97
2023-02-04T10:55:45.662Z,3.45
2023-02-04T10:58:48.227Z,4.00
2023-02-04T11:04:52.553Z,3.33
2023-02-04T11:07:54.434Z,2.88
2023-02-04T11:10:59.780Z,3.38
2023-02-04T11:14:02.871Z,3.70
2023-02-04T11:17:04.915Z,3.30
2023-02-04T11:20:17.862Z,2.63
2023-02-04T11:23:25.884Z,2.85
2023-02-04T11:26:42.476Z,3.25
2023-02-04T11:29:44.432Z,2.60
2023-02-04T11:33:00.780Z,2.45
2023-02-04T11:36:08.049Z,2.35
2023-02-04T11:39:17.125Z,2.95
2023-02-04T11:42:41.557Z,2.58
2023-02-04T11:45:43.870Z,2.70
2023-02-04T11:48:45.977Z,1.95
2023-02-04T12:03:45.915Z,2.40
2023-02-04T12:06:58.581Z,2.10
2023-02-04T12:10:15.484Z,2.22
2023-02-04T12:13:22.813Z,2.03
2023-02-04T12:16:25.530Z,2.20
2023-02-04T12:19:28.080Z,2.13
2023-02-04T12:22:30.072Z,2.03
2023-02-04T12:25:32.641Z,2.67
2023-02-04T12:28:34.956Z,2.67
2023-02-04T12:31:37.027Z,2.10
2023-02-04T12:34:39.005Z,2.67
2023-02-04T12:37:41.011Z,2.30
2023-02-04T12:40:42.932Z,2.55
2023-02-04T12:43:44.784Z,2.35
2023-02-04T12:46:47.271Z,1.75
2023-02-04T12:52:55.772Z,2.42
2023-02-04T12:55:57.888Z,2.38
2023-02-04T12:58:59.818Z,2.10
2023-02-04T13:02:01.774Z,1.50
2023-02-04T13:05:03.747Z,2.22
2023-02-04T13:08:05.732Z,2.05
2023-02-04T13:11:07.724Z,1.85
2023-02-04T13:14:09.595Z,1.40
2023-02-04T13:17:11.863Z,2.10
2023-02-04T13:20:13.831Z,2.28
2023-02-04T13:23:15.757Z,2.10
2023-02-04T13:26:17.636Z,2.15
2023-02-04T13:29:19.759Z,2.80
2023-02-04T13:32:21.727Z,2.30
2023-02-04T13:35:23.683Z,2.00
2023-02-04T13:38:25.536Z,2.53
2023-02-04T13:41:28.358Z,1.65
2023-02-04T13:44:30.239Z,2.78
2023-02-04T13:47:32.118Z,2.50
2023-02-04T13:50:34.310Z,2.80
2023-02-04T13:53:36.433Z,2.70
2023-02-04T13:56:40.581Z,3.22
2023-02-04T13:59:42.484Z,3.10
2023-02-04T14:02:44.470Z,3.20
2023-02-04T14:05:46.454Z,2.72
2023-02-04T14:08:48.803Z,1.70
2023-02-04T14:11:50.685Z,1.55
2023-02-04T14:14:52.695Z,1.70
2023-02-04T14:17:54.591Z,1.70
2023-02-04T14:20:56.469Z,1.67
2023-02-04T14:23:58.488Z,2.08
2023-02-04T14:27:00.405Z,2.05
2023-02-04T14:30:02.387Z,2.30
2023-02-04T14:33:04.573Z,1.88
2023-02-04T14:36:06.790Z,1.42
2023-02-04T14:39:09.085Z,1.80
2023-02-04T14:42:11.132Z,1.90
2023-02-04T14:45:14.544Z,2.03
2023-02-04T14:48:16.494Z,2.38
2023-02-04T14:51:18.912Z,2.67
2023-02-04T14:54:20.892Z,2.22
2023-02-04T14:57:22.979Z,2.78
2023-02-04T15:00:25.051Z,2.15
2023-02-04T15:03:26.975Z,1.88
2023-02-04T15:06:28.871Z,2.00
2023-02-04T15:09:30.788Z,2.22
2023-02-04T15:12:32.649Z,2.35
2023-02-04T15:15:34.724Z,2.42
2023-02-04T15:18:36.620Z,1.90
2023-02-04T15:21:38.568Z,2.28
2023-02-04T15:24:40.535Z,2.40
2023-02-04T15:27:42.564Z,2.75
2023-02-04T15:30:44.605Z,2.15
2023-02-04T15:33:46.522Z,2.05
2023-02-04T15:36:50.953Z,2.67
2023-02-04T15:39:53.261Z,3.00
2023-02-04T15:42:55.488Z,2.38
2023-02-04T15:45:57.654Z,1.75
2023-02-04T15:48:59.753Z,2.38
2023-02-04T15:52:02.086Z,2.55
2023-02-04T15:55:04.385Z,2.60
2023-02-04T15:58:06.440Z,2.33
2023-02-04T16:01:08.485Z,2.60
2023-02-04T16:04:12.217Z,2.53
2023-02-04T16:07:14.316Z,2.97
2023-02-04T16:10:18.456Z,2.70
2023-02-04T16:13:21.465Z,2.17
2023-02-04T16:16:23.611Z,2.50
2023-02-04T16:19:25.685Z,1.65
2023-02-04T16:22:27.826Z,2.00
2023-02-04T16:25:30.560Z,1.92
2023-02-04T16:28:33.783Z,1.65
2023-02-04T16:31:35.830Z,2.00
2023-02-04T16:34:37.781Z,2.17
2023-02-04T16:37:40.201Z,2.30
2023-02-04T16:40:42.273Z,2.75
2023-02-04T16:43:44.407Z,2.47
2023-02-04T16:46:46.604Z,2.40
2023-02-04T16:49:48.864Z,1.88
2023-02-04T16:52:53.657Z,2.45
2023-02-04T16:55:55.729Z,1.98
2023-02-04T16:58:57.798Z,2.20
2023-02-04T17:02:00.006Z,3.17
2023-02-04T17:05:02.672Z,7.30
2023-02-04T17:08:05.888Z,7.75
2023-02-04T17:11:08.030Z,6.43
2023-02-04T17:14:11.983Z,7.60
2023-02-04T17:17:14.106Z,8.27
2023-02-04T17:20:16.369Z,13.73
2023-02-04T17:23:18.384Z,6.72
2023-02-04T17:26:20.535Z,4.93
2023-02-04T17:29:22.696Z,8.38
2023-02-04T17:32:24.920Z,4.15
2023-02-04T17:35:27.282Z,3.50
2023-02-04T17:38:30.283Z,4.00
2023-02-04T17:41:33.345Z,9.50
2023-02-04T17:44:35.368Z,6.18
2023-02-04T17:47:38.941Z,5.03
2023-02-04T17:50:41.892Z,3.80
2023-02-04T17:53:44.105Z,4.93
2023-02-04T17:56:46.134Z,4.82
2023-02-04T17:59:51.668Z,6.45
2023-02-04T18:02:54.299Z,5.60
2023-02-04T18:05:57.165Z,4.88
2023-02-04T18:08:59.379Z,10.10
2023-02-04T18:12:02.642Z,13.02
2023-02-04T18:15:26.413Z,8.43
2023-02-04T18:18:41.177Z,4.85
2023-02-04T18:21:44.041Z,5.97
2023-02-04T18:24:46.829Z,4.97
2023-02-04T18:27:48.999Z,4.07
2023-02-04T18:30:54.944Z,3.50
2023-02-04T18:33:58.010Z,3.10
2023-02-04T18:40:09.247Z,3.42
2023-02-04T18:43:25.022Z,3.28
2023-02-04T18:46:32.238Z,3.42
2023-02-04T18:49:38.713Z,4.07
2023-02-04T18:52:40.875Z,3.28
2023-02-04T18:55:51.370Z,3.88
2023-02-04T18:58:53.494Z,4.40
2023-02-04T19:01:58.924Z,2.75
2023-02-04T19:05:13.048Z,4.03
2023-02-04T19:08:26.378Z,3.15
2023-02-04T19:11:47.024Z,3.20
2023-02-04T19:14:49.068Z,2.97
2023-02-04T19:17:51.517Z,3.60
2023-02-04T19:20:53.567Z,2.95
2023-02-04T19:24:15.286Z,3.28
2023-02-04T19:27:29.737Z,3.45
2023-02-04T19:30:31.862Z,3.08
2023-02-04T19:33:42.911Z,4.72
2023-02-04T19:36:47.908Z,10.27
2023-02-04T19:39:51.948Z,17.17
2023-02-04T19:45:57.443Z,18.73
2023-02-04T19:48:59.479Z,13.88
2023-02-04T19:52:02.116Z,8.07
2023-02-04T19:55:19.236Z,4.03
2023-02-04T19:58:22.460Z,3.30
2023-02-04T20:01:32.477Z,3.58
2023-02-04T20:04:47.541Z,3.63
2023-02-04T20:07:49.877Z,4.47
2023-02-04T20:10:51.873Z,8.50
2023-02-04T20:14:01.241Z,7.70
2023-02-04T20:17:23.094Z,4.95
2023-02-04T20:20:32.752Z,3.92
2023-02-04T20:23:35.531Z,3.95
2023-02-04T20:26:37.608Z,3.95
2023-02-04T20:29:39.760Z,3.30
2023-02-04T20:32:44.999Z,3.83
2023-02-04T20:35:53.511Z,4.70
2023-02-04T20:39:09.440Z,5.50
2023-02-04T20:42:26.251Z,4.70
2023-02-04T20:45:53.820Z,4.97
2023-02-04T20:48:55.885Z,5.30
2023-02-04T20:52:00.205Z,5.63
2023-02-04T20:55:02.350Z,5.32
2023-02-04T20:58:23.648Z,6.43
2023-02-04T21:01:32.423Z,5.78
2023-02-04T21:04:37.782Z,5.70
2023-02-04T21:07:44.556Z,5.05
2023-02-04T21:10:47.812Z,6.78
2023-02-04T21:13:51.433Z,6.05
2023-02-04T21:16:54.417Z,5.43
2023-02-04T21:19:56.634Z,5.78
2023-02-04T21:23:06.985Z,5.32
2023-02-04T21:26:09.844Z,5.75
2023-02-04T21:29:12.048Z,7.15
2023-02-04T21:32:14.104Z,7.97
2023-02-04T21:35:16.166Z,8.98
2023-02-04T21:38:18.104Z,10.88
2023-02-04T21:41:20.270Z,12.18
2023-02-04T21:44:22.245Z,7.72
2023-02-04T21:47:24.163Z,6.90
2023-02-04T21:50:26.324Z,6.10
2023-02-04T21:53:28.242Z,6.22
2023-02-04T21:56:30.897Z,7.32
2023-02-04T21:59:35.642Z,6.07
2023-02-04T22:02:37.720Z,5.47
2023-02-04T22:05:39.977Z,5.38
2023-02-04T22:08:41.955Z,4.88
2023-02-04T22:11:44.038Z,5.75
2023-02-04T22:14:47.447Z,5.70
2023-02-04T22:17:50.822Z,5.70
2023-02-04T22:20:52.996Z,5.68
2023-02-04T22:23:55.045Z,6.35
2023-02-04T22:26:57.421Z,5.50
2023-02-04T22:30:00.567Z,5.40
2023-02-04T22:33:02.521Z,6.38
2023-02-04T22:36:04.520Z,5.63
2023-02-04T22:39:06.637Z,5.72
2023-02-04T22:42:08.719Z,4.00
2023-02-04T22:45:11.409Z,3.40
2023-02-04T22:48:13.384Z,2.35
2023-02-04T22:51:18.325Z,3.33
2023-02-04T22:54:20.532Z,2.95
2023-02-04T22:57:22.496Z,2.85
2023-02-04T23:00:24.586Z,2.60
2023-02-04T23:03:26.790Z,2.40
2023-02-04T23:06:29.003Z,2.92
2023-02-04T23:09:34.070Z,2.50
2023-02-04T23:12:35.981Z,4.20
2023-02-04T23:15:38.282Z,3.58
2023-02-04T23:18:40.278Z,3.33
2023-02-04T23:21:42.834Z,3.55
2023-02-04T23:24:44.873Z,4.03
2023-02-04T23:27:47.337Z,3.60
2023-02-04T23:30:50.856Z,3.80
2023-02-04T23:33:52.783Z,4.00
2023-02-04T23:36:54.724Z,3.30
2023-02-04T23:39:56.600Z,3.63
2023-02-04T23:42:58.604Z,3.28
2023-02-04T23:46:00.626Z,4.00
2023-02-04T23:49:02.651Z,3.13
2023-02-04T23:52:04.738Z,3.65
2023-02-04T23:55:06.988Z,4.75
2023-02-04T23:58:09.154Z,4.53
